Latest Weather Observations for Leinster

IDW60801

Issued at 7:33 am WST Friday 15 November 2019 (issued every 10 minutes, with the page automatically refreshed every 10 minutes)

About weather observations | Map of weather stations | Latest weather observations for WA | Other Formats
Station Details ID: 012314 Name: LEINSTER AERO Lat: -27.84 Lon: 120.70 Height: 497.0 m
Data from the previous 72 hours. | See also: Recent months at Leinster
Date/Time
WST
Temp
°C
App
Temp
°C
Dew
Point
°C
Rel
Hum
%
Delta-T
°C
Wind Press
QNH
hPa
Press
MSL
hPa
Rain since
9am
mm
Dir  Spd
km/h
Gust
km/h
Spd
kts
Gust
kts
15/07:30am 30.0 22.7 -11.4 6 16.6 ENE 22 30 12 16 1016.4 1013.4 0.0
15/07:00am 28.2 20.9 -10.8 7 15.5 NE 22 32 12 17 1016.0 1013.1 0.0
15/06:30am 26.9 21.0 -10.1 8 14.8 NE 15 24 8 13 1016.0 1013.1 0.0
15/06:00am 25.2 19.4 -8.5 10 13.6 NE 15 22 8 12 1015.5 1012.6 0.0
15/05:30am 22.6 18.0 -8.2 12 12.2 E 9 13 5 7 1015.2 1012.2 0.0
15/05:00am 21.4 16.2 -6.3 15 11.2 NE 13 15 7 8 1014.7 1011.7 0.0
15/04:30am 21.5 16.8 -5.3 16 11.1 ENE 11 15 6 8 1014.7 1011.7 0.0
15/04:00am 21.9 17.5 -5.9 15 11.4 ENE 9 13 5 7 1014.7 1011.7 0.0
15/03:30am 22.4 18.0 -5.5 15 11.6 ENE 9 11 5 6 1014.5 1011.5 0.0
15/03:00am 22.3 18.0 -4.7 16 11.4 NE 9 11 5 6 1014.3 1011.3 0.0
15/02:30am 23.9 19.3 -4.3 15 12.2 NE 11 15 6 8 1014.1 1011.1 0.0
15/02:00am 25.2 19.8 -4.2 14 12.9 N 15 19 8 10 1014.2 1011.2 0.0
15/01:30am 25.1 20.1 -4.2 14 12.8 ENE 13 17 7 9 1013.8 1010.9 0.0
15/01:00am 25.5 20.5 -3.9 14 13.0 NNE 13 17 7 9 1014.1 1011.1 0.0
15/12:30am 26.6 21.3 -4.0 13 13.6 NE 15 19 8 10 1014.4 1011.4 0.0
15/12:00am 27.7 21.6 -4.3 12 14.3 NE 19 24 10 13 1014.4 1011.4 0.0
 
Date/Time
WST
Temp
°C
App
Temp
°C
Dew
Point
°C
Rel
Hum
%
Delta-T
°C
Wind Press
QNH
hPa
Press
MSL
hPa
Rain since
9am
mm
Dir  Spd
km/h
Gust
km/h
Spd
kts
Gust
kts
14/11:30pm 27.5 21.7 -4.4 12 14.2 ENE 17 26 9 14 1014.9 1011.9 0.0
14/11:00pm 27.8 22.0 -4.2 12 14.3 ENE 17 26 9 14 1015.1 1012.1 0.0
14/10:30pm 27.2 22.3 -3.6 13 13.8 ENE 13 17 7 9 1015.4 1012.5 0.0
14/10:00pm 27.4 22.4 -4.5 12 14.1 NE 13 15 7 8 1015.5 1012.6 0.0
14/09:30pm 28.4 23.3 -4.9 11 14.8 ENE 13 17 7 9 1015.6 1012.7 0.0
14/09:00pm 30.7 26.1 -4.4 10 16.0 ESE 11 17 6 9 1015.5 1012.6 0.0
14/08:30pm 30.7 25.7 -4.4 10 16.0 ESE 13 17 7 9 1015.5 1012.6 0.0
14/08:00pm 31.4 26.7 -5.2 9 16.5 ESE 11 13 6 7 1015.4 1012.5 0.0
14/07:30pm 32.5 27.9 -4.4 9 17.0 SE 11 15 6 8 1015.2 1012.2 0.0
14/07:00pm 33.5 28.4 -5.2 8 17.8 SSE 13 17 7 9 1015.0 1012.0 0.0
14/06:30pm 34.4 29.0 -4.6 8 18.2 S 15 20 8 11 1014.7 1011.7 0.0
14/06:00pm 35.3 29.6 -3.9 8 18.6 SSE 17 26 9 14 1014.5 1011.5 0.0
14/05:30pm 35.5 30.0 -5.5 7 19.0 SSW 15 22 8 12 1014.3 1011.3 0.0
14/05:00pm 35.6 30.9 -5.5 7 19.1 NNE 11 13 6 7 1014.1 1011.1 0.0
14/04:30pm 35.9 29.1 -5.2 7 19.2 SW 22 32 12 17 1014.2 1011.2 0.0
14/04:00pm 37.2 33.5 -4.3 7 19.9 SW 6 11 3 6 1014.3 1011.3 0.0
14/03:30pm 36.7 30.9 -4.7 7 19.6 SSE 17 22 9 12 1014.6 1011.6 0.0
14/03:00pm 35.9 29.7 -5.2 7 19.2 SE 19 39 10 21 1014.8 1011.8 0.0
14/02:30pm 37.3 32.7 -4.2 7 19.9 E 11 19 6 10 1015.2 1012.2 0.0
14/02:00pm 36.9 32.3 -4.5 7 19.7 NNW 11 17 6 9 1015.6 1012.7 0.0
14/01:30pm 36.1 31.4 -5.1 7 19.3 NW 11 17 6 9 1016.2 1013.2 0.0
14/01:00pm 35.7 29.8 -5.4 7 19.1 E 17 26 9 14 1016.8 1013.8 0.0
14/12:30pm 34.9 30.1 -6.0 7 18.7 E 11 24 6 13 1017.3 1014.4 0.0
14/12:00pm 34.5 28.9 -6.3 7 18.5 ESE 15 20 8 11 1017.7 1014.8 0.0
14/11:30am 33.9 28.8 -4.9 8 18.0 NE 13 26 7 14 1018.0 1015.1 0.0
14/11:00am 33.3 27.0 -5.4 8 17.7 NNE 19 32 10 17 1018.6 1015.6 0.0
14/10:30am 33.9 27.9 -6.7 7 18.2 ENE 17 26 9 14 1018.8 1015.8 0.0
14/10:00am 33.2 26.6 -7.2 7 17.9 ENE 20 32 11 17 1019.1 1016.2 0.0
14/09:30am 31.9 25.4 -6.4 8 17.0 ENE 20 30 11 16 1019.3 1016.4 0.0
14/09:00am 31.2 24.6 -6.9 8 16.7 NNE 20 28 11 15 1019.6 1016.7 0.0
14/08:30am 29.9 22.6 -6.4 9 15.9 NNE 24 32 13 17 1019.5 1016.6 0.0
14/08:00am 27.7 20.8 -6.6 10 14.6 NNE 22 30 12 16 1019.7 1016.8 0.0
14/07:30am 26.5 20.0 -6.3 11 14.0 NE 20 28 11 15 1019.8 1016.9 0.0
14/07:00am 25.1 18.2 -6.3 12 13.2 ENE 22 30 12 16 1019.6 1016.7 0.0
14/06:30am 23.4 17.1 -5.6 14 12.2 ENE 19 26 10 14 1019.4 1016.5 0.0
14/06:00am 21.6 16.1 -5.3 16 11.1 ENE 15 20 8 11 1019.2 1016.3 0.0
14/05:30am 19.3 14.7 -4.2 20 9.7 NE 11 17 6 9 1018.9 1015.9 0.0
14/05:00am 18.5 13.2 -3.6 22 9.2 ENE 15 19 8 10 1018.5 1015.5 0.0
14/04:30am 19.1 14.2 -3.7 21 9.5 ENE 13 17 7 9 1018.4 1015.4 0.0
14/04:00am 19.0 14.1 -3.2 22 9.3 ENE 13 17 7 9 1018.3 1015.3 0.0
14/03:30am 19.6 14.7 -3.3 21 9.7 ENE 13 17 7 9 1018.4 1015.4 0.0
14/03:00am 20.0 15.1 -3.0 21 9.8 ENE 13 17 7 9 1018.4 1015.4 0.0
14/02:30am 20.4 15.9 -3.3 20 10.1 ENE 11 15 6 8 1018.1 1015.2 0.0
14/02:00am 20.6 16.1 -3.1 20 10.1 ENE 11 13 6 7 1018.1 1015.2 0.0
14/01:30am 21.2 17.2 -2.6 20 10.4 ENE 9 13 5 7 1018.5 1015.5 0.0
14/01:00am 22.4 17.9 -3.1 18 11.1 ENE 11 13 6 7 1018.5 1015.5 0.0
14/12:30am 22.9 18.1 -2.6 18 11.3 ENE 13 19 7 10 1018.6 1015.6 0.0
14/12:00am 22.6 17.8 -2.2 19 11.0 ENE 13 17 7 9 1018.7 1015.7 0.0
 
Date/Time
WST
Temp
°C
App
Temp
°C
Dew
Point
°C
Rel
Hum
%
Delta-T
°C
Wind Press
QNH
hPa
Press
MSL
hPa
Rain since
9am
mm
Dir  Spd
km/h
Gust
km/h
Spd
kts
Gust
kts
13/11:30pm 22.7 18.3 -2.1 19 11.0 ENE 11 15 6 8 1018.9 1015.9 0.0
13/11:00pm 23.4 19.0 -2.2 18 11.4 ENE 11 15 6 8 1019.0 1016.1 0.0
13/10:30pm 24.1 19.3 -2.4 17 11.9 E 13 15 7 8 1019.2 1016.3 0.0
13/10:00pm 24.5 20.1 -2.1 17 12.0 ENE 11 15 6 8 1019.2 1016.3 0.0
13/09:30pm 25.2 21.2 -2.4 16 12.5 ENE 9 13 5 7 1019.2 1016.3 0.0
13/09:00pm 25.4 21.4 -2.2 16 12.5 ENE 9 13 5 7 1019.1 1016.2 0.0
13/08:30pm 26.8 23.2 -2.0 15 13.3 E 7 11 4 6 1019.0 1016.1 0.0
13/08:00pm 28.2 24.1 -2.8 13 14.2 E 9 11 5 6 1018.7 1015.7 0.0
13/07:30pm 29.4 24.9 -2.9 12 15.0 ENE 11 17 6 9 1018.5 1015.5 0.0
13/07:00pm 30.2 25.7 -3.5 11 15.5 ENE 11 17 6 9 1018.1 1015.2 0.0
13/06:30pm 31.1 25.4 -4.1 10 16.2 ENE 17 24 9 13 1017.8 1014.9 0.0
13/06:00pm 32.1 26.1 -3.3 10 16.6 E 19 28 10 15 1017.5 1014.6 0.0
13/05:30pm 32.8 26.7 -4.2 9 17.2 E 19 30 10 16 1017.3 1014.4 0.0
13/05:00pm 33.6 27.3 -3.6 9 17.5 ENE 20 30 11 16 1017.3 1014.4 0.0
13/04:30pm 33.9 27.7 -4.9 8 18.0 ENE 19 33 10 18 1017.2 1014.3 0.0
13/04:00pm 33.9 27.5 -4.9 8 17.9 NNE 20 33 11 18 1017.4 1014.5 0.0
13/03:30pm 34.8 28.7 -4.3 8 18.4 ENE 19 32 10 17 1017.5 1014.6 0.0
13/03:00pm 34.4 29.5 -3.0 9 17.9 E 13 26 7 14 1017.7 1014.8 0.0
13/02:30pm 34.5 28.3 -4.5 8 18.3 ENE 19 32 10 17 1018.1 1015.2 0.0
13/02:00pm 34.3 28.1 -4.6 8 18.1 ENE 19 30 10 16 1018.5 1015.5 0.0
13/01:30pm 33.2 26.2 -3.9 9 17.4 NE 24 39 13 21 1018.8 1015.8 0.0
13/01:00pm 32.9 26.0 -2.7 10 16.9 E 24 35 13 19 1019.3 1016.4 0.0
13/12:30pm 33.2 27.1 -2.5 10 17.1 E 20 35 11 19 1019.8 1016.9 0.0
13/12:00pm 31.2 23.9 -2.7 11 15.9 E 26 41 14 22 1020.0 1017.1 0.0
13/11:30am 31.3 24.5 -1.5 12 15.8 ENE 24 35 13 19 1020.6 1017.6 0.0
13/11:00am 30.2 24.0 -0.2 14 14.8 E 22 35 12 19 1020.9 1018.0 0.0
13/10:30am 29.3 22.2 -0.9 14 14.5 ENE 26 35 14 19 1021.4 1018.5 0.0
13/10:00am 28.5 21.7 1.1 17 13.5 ENE 26 35 14 19 1021.9 1019.0 0.0
13/09:30am 27.1 20.8 1.5 19 12.6 ENE 24 33 13 18 1022.1 1019.2 0.0
13/09:00am 26.0 19.8 2.0 21 11.8 ENE 24 33 13 18 1022.2 1019.3 0.0
13/08:30am 24.0 18.2 2.2 24 10.6 NE 22 33 12 18 1022.4 1019.5 0.0
13/08:00am 23.5 16.6 2.4 25 10.3 ENE 28 37 15 20 1022.4 1019.5 0.0
13/07:30am 21.9 14.6 2.6 28 9.3 ENE 30 37 16 20 1022.7 1019.8 0.0
13/07:00am 21.6 15.8 2.3 28 9.2 ENE 22 32 12 17 1022.4 1019.5 0.0
13/06:30am 20.5 15.1 2.3 30 8.7 ENE 20 33 11 18 1022.4 1019.5 0.0
13/06:00am 18.9 14.8 2.3 33 7.8 E 13 20 7 11 1022.6 1019.6 0.0
13/05:30am 18.4 13.2 2.7 35 7.4 E 19 30 10 16 1021.7 1018.8 0.0
13/05:00am 17.9 13.2 3.0 37 7.0 E 17 26 9 14 1021.5 1018.6 0.0
13/04:30am 17.8 13.8 2.9 37 7.0 E 13 20 7 11 1021.6 1018.7 0.0
13/04:00am 17.7 13.8 3.2 38 6.9 ESE 13 19 7 10 1021.5 1018.6 0.0
13/03:30am 17.4 13.1 3.3 39 6.7 ESE 15 20 8 11 1021.3 1018.4 0.0
13/03:00am 17.3 13.4 3.2 39 6.7 ESE 13 19 7 10 1021.4 1018.5 0.0
13/02:30am 17.4 13.9 3.3 39 6.7 ESE 11 17 6 9 1021.8 1018.9 0.0
13/02:00am 17.5 14.7 3.4 39 6.7 SE 7 9 4 5 1022.1 1019.2 0.0
13/01:30am 17.8 14.6 3.3 38 6.9 ESE 9 15 5 8 1021.8 1018.9 0.0
13/01:00am 17.9 14.4 3.4 38 6.9 ESE 11 13 6 7 1021.9 1019.0 0.0
13/12:30am 18.5 15.4 3.6 37 7.2 ESE 9 13 5 7 1022.3 1019.4 0.0
13/12:00am 19.0 15.9 3.6 36 7.4 ENE 9 17 5 9 1022.8 1019.9 0.0
 
Date/Time
WST
Temp
°C
App
Temp
°C
Dew
Point
°C
Rel
Hum
%
Delta-T
°C
Wind Press
QNH
hPa
Press
MSL
hPa
Rain since
9am
mm
Dir  Spd
km/h
Gust
km/h
Spd
kts
Gust
kts
12/11:30pm 19.3 15.4 3.5 35 7.6 ESE 13 17 7 9 1022.8 1019.9 0.0
12/11:00pm 19.9 14.9 3.6 34 7.9 ESE 19 24 10 13 1022.4 1019.5 0.0
12/10:30pm 20.5 15.9 3.7 33 8.2 ESE 17 28 9 15 1022.3 1019.4 0.0
12/10:00pm 21.0 16.0 3.7 32 8.5 ESE 19 32 10 17 1021.9 1019.0 0.0
12/09:30pm 21.5 16.5 3.7 31 8.8 E 19 26 10 14 1022.0 1019.1 0.0
12/09:00pm 21.6 17.4 3.8 31 8.8 E 15 26 8 14 1021.7 1018.8 0.0
12/08:30pm 21.6 16.4 3.8 31 8.8 ESE 20 30 11 16 1021.4 1018.5 0.0
12/08:00pm 21.9 16.8 4.0 31 8.9 ESE 20 30 11 16 1021.7 1018.8 0.0
12/07:30pm 22.2 16.7 3.8 30 9.1 ESE 22 32 12 17 1021.4 1018.5 0.0
12/07:00pm 22.8 16.9 3.9 29 9.4 ESE 24 33 13 18 1020.8 1017.9 0.0
12/06:30pm 23.7 17.1 4.1 28 9.9 SE 28 35 15 19 1020.4 1017.4 0.0
12/06:00pm 24.3 17.7 4.1 27 10.2 SE 28 37 15 20 1019.6 1016.7 0.0
12/05:30pm 25.2 18.5 3.8 25 10.8 SSE 28 35 15 19 1019.7 1016.8 0.0
12/05:00pm 26.1 19.6 2.7 22 11.7 SE 26 35 14 19 1019.7 1016.8 0.0
12/04:30pm 26.6 19.3 2.5 21 12.0 SSE 30 39 16 21 1019.6 1016.7 0.0
12/04:00pm 27.7 21.1 2.0 19 12.8 SE 26 39 14 21 1019.2 1016.3 0.0
12/03:30pm 29.0 21.9 1.5 17 13.7 SE 28 43 15 23 1019.0 1016.1 0.0
12/03:00pm 28.1 20.7 1.6 18 13.1 SE 30 39 16 21 1018.9 1015.9 0.0
12/02:30pm 28.1 21.9 2.3 19 13.0 ESE 24 41 13 22 1019.1 1016.2 0.0
12/02:00pm 28.6 22.7 2.0 18 13.3 ESE 22 37 12 20 1019.6 1016.7 0.0
12/01:30pm 29.0 22.3 1.5 17 13.7 E 26 39 14 21 1019.8 1016.9 0.0
12/01:00pm 27.2 21.0 2.3 20 12.4 E 24 33 13 18 1019.9 1017.0 0.0
12/12:30pm 26.1 18.5 2.7 22 11.7 E 32 43 17 23 1020.0 1017.1 0.0
12/12:00pm 24.8 18.0 2.9 24 10.9 E 28 43 15 23 1020.0 1017.1 0.0
12/11:30am 23.7 16.5 3.1 26 10.2 E 30 41 16 22 1020.2 1017.3 0.0
12/11:00am 23.1 16.3 3.1 27 9.8 E 28 46 15 25 1020.6 1017.6 0.0
12/10:53am 23.0 16.2 3.0 27 9.8 E 28 46 15 25 1020.7 1017.7 0.0
12/10:30am 21.5 15.5 3.2 30 8.9 E 24 33 13 18 1021.3 1018.4 0.0
12/10:00am 21.0 15.4 3.2 31 8.6 E 22 35 12 19 1022.0 1019.1 0.0
12/09:30am 21.3 15.7 3.5 31 8.7 ESE 22 37 12 20 1022.2 1019.3 0.0
12/09:00am 21.1 16.1 3.8 32 8.5 E 19 26 10 14 1022.4 1019.5 0.0
12/08:30am 20.0 15.6 4.5 36 7.7 E 17 26 9 14 1022.6 1019.6 0.0
12/08:00am 20.2 15.7 4.3 35 7.8 ESE 17 24 9 13 1022.2 1019.3 0.0

Other formats

Comma delimited format used in spreadsheet applications
http://www.bom.gov.au/fwo/IDW60801/IDW60801.95448.axf

JavaScript Object Notation format (JSON) in row-major order
http://www.bom.gov.au/fwo/IDW60801/IDW60801.95448.json

Data quality

Most of these data are generated automatically and are frequently updated. Quality checks on data are not normally performed. It is possible for incorrect values to appear. Refer to information at About Latest Weather Observations and please check the disclaimer before using these data.